Time;durP1;ratioP1;P1;durP2;ratioP2;P2;SDS_P1;SDS_P2;PMS_P1;PMS_P2;Temp;Humidity;BMP_temperature;BMP_pressure;BME280_temperature;BME280_humidity;BME280_pressure;Samples;Min_cycle;Max_cycle;Signal;HPM_P1;HPM_P2
2022/12/29 00:01:30;;;;;;;0.30;0.30;;;11.00;99.90;;;;;;4992802;28;20118;-66
2022/12/29 00:03:56;;;;;;;0.55;0.40;;;11.10;99.90;;;;;;4992683;28;20531;-67
2022/12/29 00:06:22;;;;;;;0.20;0.20;;;11.10;99.90;;;;;;4992872;28;20030;-66
2022/12/29 00:08:48;;;;;;;0.30;0.30;;;11.00;99.90;;;;;;4975440;28;20027;-66
2022/12/29 00:11:20;;;;;;;0.13;0.13;;;11.10;99.90;;;;;;4982178;28;20025;-67
2022/12/29 00:16:31;;;;;;;0.50;0.50;;;11.10;99.90;;;;;;4984934;28;20479;-65
2022/12/29 00:18:57;;;;;;;0.65;0.63;;;11.20;99.90;;;;;;4981127;28;20029;-65
2022/12/29 00:35:27;;;;;;;0.55;0.50;;;11.70;99.90;;;;;;4987634;28;20098;-65
2022/12/29 00:46:10;;;;;;;0.35;0.20;;;11.80;99.90;;;;;;4995737;28;20561;-66
2022/12/29 00:51:20;;;;;;;0.82;0.40;;;11.80;99.90;;;;;;4977745;28;20042;-66
2022/12/29 00:53:45;;;;;;;1.23;0.75;;;11.90;99.90;;;;;;4974958;28;20048;-66
2022/12/29 00:56:11;;;;;;;0.40;0.40;;;12.00;99.90;;;;;;4975027;28;20065;-65
2022/12/29 00:58:38;;;;;;;2.45;0.80;;;12.10;99.90;;;;;;4975295;28;20097;-66
2022/12/29 01:01:06;;;;;;;0.57;0.43;;;12.10;99.90;;;;;;4976955;28;20046;-66
2022/12/29 01:03:36;;;;;;;3.63;0.70;;;12.10;99.90;;;;;;4979030;28;22031;-67
2022/12/29 01:06:05;;;;;;;0.13;0.13;;;12.10;99.90;;;;;;4977752;28;20022;-67
2022/12/29 01:08:31;;;;;;;0.63;0.40;;;12.10;99.90;;;;;;4977228;28;20022;-66
2022/12/29 01:11:02;;;;;;;1.58;0.60;;;12.10;99.90;;;;;;4981023;28;20050;-65
2022/12/29 01:13:28;;;;;;;0.30;0.15;;;12.00;99.90;;;;;;4975979;28;20038;-65
2022/12/29 01:15:54;;;;;;;0.30;0.30;;;12.00;99.90;;;;;;4977820;28;20035;-67
2022/12/29 01:18:21;;;;;;;0.70;0.35;;;12.10;99.90;;;;;;4980677;28;20026;-66
2022/12/29 01:20:47;;;;;;;0.50;0.40;;;12.10;99.90;;;;;;4974161;28;20475;-65
2022/12/29 01:23:14;;;;;;;4.28;0.77;;;12.20;99.90;;;;;;4977894;28;20030;-66
2022/12/29 01:25:40;;;;;;;5.45;0.77;;;12.20;99.90;;;;;;4976645;28;20030;-66
2022/12/29 01:28:08;;;;;;;1.88;0.93;;;12.20;99.90;;;;;;4978167;28;20030;-65
2022/12/29 01:30:36;;;;;;;2.75;0.63;;;12.20;99.90;;;;;;4974976;28;20431;-67
2022/12/29 01:33:03;;;;;;;0.73;0.40;;;12.20;99.90;;;;;;4978097;28;20026;-66
2022/12/29 01:35:29;;;;;;;0.45;0.45;;;12.30;99.90;;;;;;4976121;28;20031;-66
2022/12/29 01:37:57;;;;;;;1.50;0.57;;;12.30;99.90;;;;;;4976198;28;20023;-66
2022/12/29 01:40:23;;;;;;;2.50;0.63;;;12.30;99.90;;;;;;4973322;28;20038;-67
2022/12/29 01:42:49;;;;;;;1.17;0.40;;;12.30;99.90;;;;;;4985622;28;20061;-66
2022/12/29 01:45:17;;;;;;;3.45;0.80;;;12.40;99.90;;;;;;4993531;28;20037;-66
2022/12/29 01:47:51;;;;;;;0.43;0.40;;;12.30;99.90;;;;;;4989659;28;20507;-66
2022/12/29 01:50:30;;;;;;;1.02;0.60;;;12.30;99.90;;;;;;4977147;28;20037;-66
2022/12/29 01:53:05;;;;;;;1.75;0.85;;;12.30;99.90;;;;;;4976557;28;20567;-68
2022/12/29 01:55:35;;;;;;;0.45;0.45;;;12.10;99.90;;;;;;4987546;28;20472;-66
2022/12/29 01:58:05;;;;;;;1.77;0.65;;;12.00;99.90;;;;;;4976577;28;20034;-66
2022/12/29 02:00:32;;;;;;;1.70;0.70;;;11.80;99.90;;;;;;4975313;28;20034;-66
2022/12/29 02:02:58;;;;;;;3.38;0.65;;;11.90;99.90;;;;;;4976987;28;20077;-67
2022/12/29 02:05:30;;;;;;;0.93;0.68;;;11.80;99.90;;;;;;4986674;28;20495;-66
2022/12/29 02:07:56;;;;;;;3.05;0.82;;;11.70;99.90;;;;;;4976422;28;20480;-67
2022/12/29 02:10:25;;;;;;;0.20;0.20;;;11.70;99.90;;;;;;4978430;28;20057;-66
2022/12/29 02:12:52;;;;;;;0.43;0.43;;;11.70;99.90;;;;;;4988963;28;20042;-67
2022/12/29 02:15:26;;;;;;;0.47;0.28;;;11.70;99.90;;;;;;4972860;28;20018;-67
2022/12/29 02:18:09;;;;;;;1.17;0.43;;;11.70;99.90;;;;;;4974479;28;20407;-66
2022/12/29 02:21:04;;;;;;;0.28;0.28;;;11.70;99.90;;;;;;4975691;28;20100;-68
2022/12/29 02:23:45;;;;;;;0.30;0.30;;;11.70;99.90;;;;;;4972402;28;20035;-66
2022/12/29 02:26:40;;;;;;;1.13;0.45;;;11.60;99.90;;;;;;4974374;28;20114;-66
2022/12/29 02:29:36;;;;;;;3.83;0.88;;;11.70;99.90;;;;;;4974187;28;20031;-66
2022/12/29 02:32:32;;;;;;;0.25;0.25;;;11.70;99.90;;;;;;4987993;28;20041;-66
2022/12/29 02:35:30;;;;;;;0.47;0.30;;;11.70;99.90;;;;;;4981254;28;20050;-66
2022/12/29 02:38:18;;;;;;;0.43;0.28;;;11.60;99.90;;;;;;4978890;28;20045;-67
2022/12/29 02:40:43;;;;;;;0.28;0.28;;;11.60;99.90;;;;;;4974764;28;20050;-67
2022/12/29 02:43:31;;;;;;;6.65;0.50;;;11.70;99.90;;;;;;4974370;28;20030;-67
2022/12/29 02:46:17;;;;;;;0.20;0.20;;;11.60;99.90;;;;;;4980822;28;20038;-67
2022/12/29 02:48:57;;;;;;;0.63;0.57;;;11.60;99.90;;;;;;4974882;28;20108;-66
2022/12/29 02:51:42;;;;;;;0.45;0.45;;;11.50;99.90;;;;;;4988120;28;20392;-67
2022/12/29 02:56:53;;;;;;;0.88;0.22;;;11.50;99.90;;;;;;4977574;28;20502;-67
2022/12/29 02:59:20;;;;;;;0.95;0.55;;;11.50;99.90;;;;;;4973434;28;20030;-67
2022/12/29 03:02:26;;;;;;;0.43;0.43;;;11.50;99.90;;;;;;4972245;28;20130;-67
2022/12/29 03:05:14;;;;;;;2.33;0.50;;;11.40;99.90;;;;;;4959355;28;20066;-67
2022/12/29 03:07:51;;;;;;;2.30;1.17;;;11.40;99.90;;;;;;4989676;28;20061;-66
2022/12/29 03:10:37;;;;;;;1.73;0.20;;;11.40;99.90;;;;;;4993387;28;20037;-67
2022/12/29 03:16:24;;;;;;;4.35;1.52;;;11.40;99.90;;;;;;4991873;28;20026;-66
2022/12/29 03:19:19;;;;;;;2.17;0.65;;;11.30;99.90;;;;;;4993066;28;20049;-67
2022/12/29 03:24:47;;;;;;;2.72;0.50;;;11.30;99.90;;;;;;4993440;28;20025;-67
2022/12/29 03:27:18;;;;;;;0.28;0.20;;;11.20;99.90;;;;;;4991777;28;20471;-66
2022/12/29 03:29:53;;;;;;;2.73;0.47;;;11.10;99.90;;;;;;4975828;28;20022;-67
2022/12/29 03:32:22;;;;;;;4.03;0.88;;;11.20;99.90;;;;;;4991978;28;20026;-65
2022/12/29 03:34:49;;;;;;;0.57;0.40;;;11.30;99.90;;;;;;4991867;28;20018;-66
2022/12/29 03:37:20;;;;;;;0.25;0.20;;;11.20;99.90;;;;;;4992240;28;20038;-66
2022/12/29 03:39:46;;;;;;;1.10;0.30;;;11.20;99.90;;;;;;4975392;28;20031;-67
2022/12/29 03:42:17;;;;;;;5.85;0.90;;;11.10;99.90;;;;;;4992007;28;20112;-68
2022/12/29 03:44:44;;;;;;;2.90;0.85;;;11.20;99.90;;;;;;4992861;28;20030;-67
2022/12/29 03:47:14;;;;;;;4.18;1.08;;;11.20;99.90;;;;;;4991727;28;20030;-66
2022/12/29 03:49:40;;;;;;;7.25;0.82;;;11.20;99.90;;;;;;4995543;28;20040;-67
2022/12/29 03:52:07;;;;;;;2.22;0.93;;;11.20;99.90;;;;;;4996112;28;20034;-67
2022/12/29 03:54:39;;;;;;;3.70;0.63;;;11.20;99.90;;;;;;4995801;28;20030;-68
2022/12/29 03:57:05;;;;;;;0.20;0.20;;;11.20;99.90;;;;;;4995735;28;20399;-67
2022/12/29 03:59:43;;;;;;;0.00;0.00;;;11.10;99.90;;;;;;4995339;28;20034;-66
2022/12/29 04:02:10;;;;;;;0.15;0.15;;;11.00;99.90;;;;;;4995791;28;20033;-66
2022/12/29 04:04:37;;;;;;;23.20;0.68;;;11.00;99.90;;;;;;4997058;28;20061;-67
2022/12/29 04:07:03;;;;;;;0.63;0.10;;;11.00;99.90;;;;;;4995758;28;20495;-69
2022/12/29 04:09:31;;;;;;;2.80;1.48;;;11.00;99.90;;;;;;4995472;28;20026;-67
2022/12/29 04:11:57;;;;;;;0.17;0.17;;;11.00;99.90;;;;;;4995681;28;20077;-66
2022/12/29 04:14:23;;;;;;;7.47;0.43;;;11.00;99.90;;;;;;4994992;28;20403;-66
2022/12/29 04:16:51;;;;;;;11.05;2.10;;;10.80;99.90;;;;;;4995616;28;20645;-66
2022/12/29 04:19:17;;;;;;;4.03;0.45;;;10.90;99.90;;;;;;4995341;28;20076;-66
2022/12/29 04:21:43;;;;;;;0.98;0.93;;;10.90;99.90;;;;;;4995248;28;20069;-67
2022/12/29 04:24:08;;;;;;;0.22;0.15;;;10.90;99.90;;;;;;4995360;28;20022;-66
2022/12/29 04:26:39;;;;;;;1.25;0.70;;;11.00;99.90;;;;;;4995584;28;20030;-67
2022/12/29 04:29:25;;;;;;;3.28;0.38;;;11.10;99.90;;;;;;4996055;28;20037;-67
2022/12/29 04:32:10;;;;;;;9.93;1.00;;;11.10;99.90;;;;;;4995121;28;20022;-67
2022/12/29 04:34:41;;;;;;;6.70;1.70;;;11.10;99.90;;;;;;4995255;28;20652;-67
2022/12/29 04:37:07;;;;;;;2.63;0.20;;;11.10;99.90;;;;;;4995251;28;20125;-68
2022/12/29 04:39:34;;;;;;;4.55;0.77;;;11.10;99.90;;;;;;4995042;28;20023;-67
2022/12/29 04:42:00;;;;;;;5.78;0.82;;;11.10;99.90;;;;;;4994940;28;20098;-67
2022/12/29 04:44:26;;;;;;;7.57;0.90;;;11.10;99.90;;;;;;4994665;28;20019;-66
2022/12/29 04:47:09;;;;;;;0.25;0.15;;;11.10;99.90;;;;;;4994629;28;20026;-67
2022/12/29 04:50:01;;;;;;;;;;;11.10;99.90;;;;;;4964266;28;20101;-67
2022/12/29 04:52:43;;;;;;;1.20;0.27;;;11.10;99.90;;;;;;4997361;28;19922;-67
2022/12/29 04:55:10;;;;;;;11.02;1.48;;;11.10;99.90;;;;;;4976371;28;20426;-66
2022/12/29 04:57:36;;;;;;;1.75;0.45;;;11.00;99.90;;;;;;4976127;28;20033;-66
2022/12/29 05:00:04;;;;;;;0.50;0.50;;;10.90;99.90;;;;;;4976788;28;20022;-66
2022/12/29 05:02:31;;;;;;;0.20;0.20;;;10.90;99.90;;;;;;4976748;28;20062;-67
2022/12/29 05:04:56;;;;;;;5.15;1.38;;;10.80;99.90;;;;;;4977609;28;20050;-66
2022/12/29 05:07:23;;;;;;;4.35;1.25;;;10.80;99.90;;;;;;4976609;28;20376;-66
2022/12/29 05:09:48;;;;;;;3.08;0.90;;;10.90;99.90;;;;;;4975309;28;20074;-66
2022/12/29 05:12:15;;;;;;;0.85;0.40;;;10.90;99.90;;;;;;4973410;28;20027;-67
2022/12/29 05:14:51;;;;;;;0.57;0.57;;;10.90;99.90;;;;;;4990834;28;20030;-66
2022/12/29 05:17:18;;;;;;;0.22;0.22;;;11.00;99.90;;;;;;4979797;28;20023;-67
2022/12/29 05:19:44;;;;;;;12.02;1.08;;;11.10;99.90;;;;;;4989482;28;20085;-67
2022/12/29 05:22:11;;;;;;;1.90;0.40;;;11.00;99.90;;;;;;4978723;28;20054;-67
2022/12/29 05:24:38;;;;;;;2.03;0.65;;;11.00;99.90;;;;;;4979036;28;20019;-67
2022/12/29 05:27:05;;;;;;;1.83;0.43;;;11.00;99.90;;;;;;4958483;28;20030;-66
2022/12/29 05:29:51;;;;;;;1.80;0.52;;;11.00;99.90;;;;;;4983784;28;20038;-68
2022/12/29 05:32:16;;;;;;;2.58;0.80;;;11.00;99.90;;;;;;4989370;28;20069;-68
2022/12/29 05:34:43;;;;;;;6.88;1.30;;;11.10;99.90;;;;;;4980987;28;20031;-66
2022/12/29 05:37:10;;;;;;;0.52;0.38;;;11.10;99.90;;;;;;4988411;28;20062;-66
2022/12/29 05:39:38;;;;;;;2.92;0.95;;;11.00;99.90;;;;;;4990711;28;20030;-66
2022/12/29 05:42:05;;;;;;;2.90;0.55;;;11.00;99.90;;;;;;4972791;28;20130;-68
2022/12/29 05:44:53;;;;;;;2.72;1.08;;;11.10;99.90;;;;;;4973768;28;20062;-65
2022/12/29 05:47:46;;;;;;;4.88;1.02;;;11.00;99.90;;;;;;4975110;28;20030;-67
2022/12/29 05:50:41;;;;;;;0.63;0.60;;;11.00;99.90;;;;;;4938771;28;20036;-65
2022/12/29 05:53:13;;;;;;;4.18;0.90;;;11.10;99.90;;;;;;4988179;28;20109;-65
2022/12/29 05:55:39;;;;;;;2.30;0.32;;;11.00;99.90;;;;;;4974320;28;20187;-66
2022/12/29 05:58:05;;;;;;;1.52;0.35;;;11.00;99.90;;;;;;4972835;28;20085;-66
2022/12/29 06:00:31;;;;;;;0.20;0.20;;;11.00;99.90;;;;;;4980624;28;20031;-68
2022/12/29 06:02:57;;;;;;;1.67;0.50;;;11.00;99.90;;;;;;4975319;28;20550;-66
2022/12/29 06:05:23;;;;;;;1.92;0.80;;;11.00;99.90;;;;;;4982316;28;20026;-65
2022/12/29 06:07:49;;;;;;;6.82;1.33;;;11.00;99.90;;;;;;4994145;28;20042;-65
2022/12/29 06:10:16;;;;;;;4.05;0.93;;;11.00;99.90;;;;;;4991966;28;20423;-67
2022/12/29 06:13:05;;;;;;;5.25;0.55;;;11.00;99.90;;;;;;4993089;28;20092;-66
2022/12/29 06:15:34;;;;;;;1.67;0.50;;;11.00;99.90;;;;;;4992974;28;20049;-66
2022/12/29 06:18:00;;;;;;;9.45;0.77;;;11.00;99.90;;;;;;4993165;28;20104;-66
2022/12/29 06:20:26;;;;;;;4.75;1.20;;;11.00;99.90;;;;;;4992462;28;20893;-65
2022/12/29 06:22:51;;;;;;;2.67;1.17;;;10.90;99.90;;;;;;4992428;28;20081;-66
2022/12/29 06:25:18;;;;;;;11.73;1.02;;;11.00;99.90;;;;;;4992120;28;20026;-67
2022/12/29 06:27:44;;;;;;;2.65;0.65;;;10.90;99.90;;;;;;4992847;28;20030;-67
2022/12/29 06:30:11;;;;;;;10.75;2.50;;;11.00;99.90;;;;;;4992298;28;20557;-69
2022/12/29 06:32:38;;;;;;;1.15;0.47;;;11.00;99.90;;;;;;4992290;28;20114;-65
2022/12/29 06:35:08;;;;;;;5.38;0.60;;;11.00;99.90;;;;;;4993047;28;20031;-65
2022/12/29 06:37:39;;;;;;;6.20;1.55;;;11.10;99.90;;;;;;4992382;28;20023;-65
2022/12/29 06:40:05;;;;;;;2.78;0.82;;;11.00;99.90;;;;;;4976058;28;20530;-66
2022/12/29 06:42:48;;;;;;;4.65;1.00;;;11.00;99.90;;;;;;4980594;28;20041;-66
2022/12/29 06:45:33;;;;;;;2.30;1.08;;;11.10;99.90;;;;;;4989559;28;20092;-67
2022/12/29 06:47:58;;;;;;;4.80;1.17;;;10.90;99.90;;;;;;4975470;28;20026;-66
2022/12/29 06:50:24;;;;;;;2.63;0.82;;;11.00;99.90;;;;;;4974601;28;20034;-65
2022/12/29 06:52:50;;;;;;;4.93;0.90;;;11.00;99.90;;;;;;4981731;28;20028;-65
2022/12/29 06:55:16;;;;;;;8.57;0.98;;;10.90;99.90;;;;;;4991925;28;20034;-65
2022/12/29 06:57:42;;;;;;;2.50;0.75;;;10.90;99.90;;;;;;4987497;28;20026;-65
2022/12/29 07:00:08;;;;;;;6.97;1.70;;;10.80;99.90;;;;;;4975975;28;20034;-65
2022/12/29 07:02:34;;;;;;;9.65;1.60;;;10.90;99.90;;;;;;4974016;28;20031;-64
2022/12/29 07:05:00;;;;;;;3.75;1.35;;;10.90;99.90;;;;;;4973255;28;20045;-65
2022/12/29 07:07:26;;;;;;;0.80;0.38;;;10.90;99.90;;;;;;4975090;28;20049;-65
2022/12/29 07:09:51;;;;;;;10.45;1.48;;;10.80;99.90;;;;;;4974701;28;20030;-64
2022/12/29 07:12:17;;;;;;;1.65;1.15;;;10.60;99.90;;;;;;4976457;28;20027;-65
2022/12/29 07:14:43;;;;;;;9.57;2.00;;;10.50;99.90;;;;;;4974940;28;20034;-64
2022/12/29 07:17:09;;;;;;;6.00;1.50;;;10.40;99.90;;;;;;4974865;28;20058;-64
2022/12/29 07:19:35;;;;;;;6.93;1.33;;;10.40;99.90;;;;;;4972548;28;20105;-65
2022/12/29 07:22:01;;;;;;;6.50;2.55;;;10.50;99.90;;;;;;4973383;28;20034;-66
2022/12/29 07:24:27;;;;;;;0.45;0.20;;;10.60;99.90;;;;;;4975088;28;20039;-65
2022/12/29 07:26:52;;;;;;;7.57;1.13;;;10.60;99.90;;;;;;4974106;28;20097;-65
2022/12/29 07:29:18;;;;;;;0.75;0.63;;;10.70;99.90;;;;;;4974102;28;20050;-66
2022/12/29 07:31:44;;;;;;;6.50;1.33;;;10.80;99.90;;;;;;4972324;28;20529;-64
2022/12/29 07:34:10;;;;;;;1.70;1.02;;;10.70;99.90;;;;;;4989578;28;20019;-64
2022/12/29 07:36:36;;;;;;;14.40;0.68;;;10.80;99.90;;;;;;4989046;28;20023;-66
2022/12/29 07:39:03;;;;;;;4.38;1.05;;;10.80;99.90;;;;;;4973339;28;20026;-65
2022/12/29 07:41:29;;;;;;;18.25;1.95;;;10.80;99.90;;;;;;4974906;28;20035;-65
2022/12/29 07:43:55;;;;;;;11.70;1.58;;;10.80;99.90;;;;;;4975639;28;20015;-65
2022/12/29 07:46:34;;;;;;;1.55;0.90;;;10.90;99.90;;;;;;4973395;28;20030;-65
2022/12/29 07:49:00;;;;;;;8.23;1.27;;;10.90;99.90;;;;;;4973946;28;20563;-67
2022/12/29 07:51:26;;;;;;;3.63;1.23;;;11.00;99.90;;;;;;4980782;28;20027;-67
2022/12/29 07:53:52;;;;;;;10.27;2.35;;;11.00;99.90;;;;;;4992750;28;20038;-67
2022/12/29 07:56:18;;;;;;;1.80;0.47;;;11.00;99.90;;;;;;4993186;28;20045;-68
2022/12/29 07:58:43;;;;;;;1.90;0.65;;;11.00;99.90;;;;;;4977184;28;20050;-64
2022/12/29 08:01:09;;;;;;;13.88;2.08;;;11.00;99.90;;;;;;4973206;28;20046;-65
2022/12/29 08:03:36;;;;;;;1.27;0.50;;;11.00;99.90;;;;;;4972720;28;20054;-65
2022/12/29 08:06:02;;;;;;;9.93;0.88;;;11.00;99.90;;;;;;4973093;28;20042;-66
2022/12/29 08:08:28;;;;;;;8.75;2.22;;;11.00;99.90;;;;;;4976152;28;20105;-68
2022/12/29 08:10:54;;;;;;;0.20;0.10;;;11.00;99.90;;;;;;4971400;28;20031;-67
2022/12/29 08:13:20;;;;;;;10.52;1.05;;;11.00;99.90;;;;;;4972606;28;20026;-64
2022/12/29 08:15:46;;;;;;;21.13;2.63;;;11.00;99.90;;;;;;4974047;28;20046;-64
2022/12/29 08:18:12;;;;;;;9.95;1.92;;;10.90;99.90;;;;;;4972770;28;20031;-65
2022/12/29 08:20:38;;;;;;;6.40;1.13;;;10.90;99.90;;;;;;4972380;28;20027;-67
2022/12/29 08:23:04;;;;;;;6.05;2.42;;;11.00;99.90;;;;;;4974957;28;20078;-66
2022/12/29 08:25:30;;;;;;;0.10;0.10;;;11.00;99.90;;;;;;4976032;28;20093;-66
2022/12/29 08:27:56;;;;;;;3.60;0.98;;;11.00;99.90;;;;;;4972634;28;20101;-64
2022/12/29 08:30:22;;;;;;;4.32;2.63;;;10.90;99.90;;;;;;4973339;28;20054;-65
2022/12/29 08:32:48;;;;;;;13.52;1.58;;;10.90;99.90;;;;;;4992891;28;20022;-65
2022/12/29 08:35:14;;;;;;;8.73;1.67;;;10.80;99.90;;;;;;4995336;28;20513;-65
2022/12/29 08:37:39;;;;;;;6.60;1.55;;;10.80;99.90;;;;;;4996095;28;20430;-64
2022/12/29 08:40:06;;;;;;;2.78;1.90;;;10.70;99.90;;;;;;4996283;28;20364;-67
2022/12/29 08:42:32;;;;;;;10.85;2.45;;;10.60;99.90;;;;;;4995857;28;20064;-66
2022/12/29 08:44:59;;;;;;;6.78;2.65;;;10.50;99.90;;;;;;4983774;28;20019;-65
2022/12/29 08:47:25;;;;;;;4.38;1.05;;;10.40;99.90;;;;;;4978932;28;20491;-66
2022/12/29 08:49:51;;;;;;;9.80;2.60;;;10.10;99.90;;;;;;4978235;28;20058;-66
2022/12/29 08:52:17;;;;;;;9.63;1.52;;;10.10;99.90;;;;;;4994529;28;20066;-65
2022/12/29 08:54:43;;;;;;;3.58;0.65;;;10.10;99.90;;;;;;4995626;28;20037;-64
2022/12/29 08:57:10;;;;;;;18.63;2.33;;;10.00;99.90;;;;;;4994623;28;20039;-65
2022/12/29 08:59:43;;;;;;;5.50;1.40;;;9.90;99.90;;;;;;4994370;28;20096;-65
2022/12/29 09:02:11;;;;;;;7.88;1.30;;;9.70;99.90;;;;;;4994827;28;20108;-66
2022/12/29 09:04:37;;;;;;;7.55;2.65;;;9.60;99.90;;;;;;4995280;28;20069;-65
2022/12/29 09:07:04;;;;;;;2.60;0.95;;;9.50;99.90;;;;;;4995765;28;20054;-66
2022/12/29 09:09:30;;;;;;;4.63;0.82;;;9.50;99.90;;;;;;4995296;28;20467;-65
2022/12/29 09:11:55;;;;;;;5.25;1.38;;;9.50;99.90;;;;;;4994179;28;20165;-65
2022/12/29 09:14:21;;;;;;;6.93;1.33;;;9.60;99.90;;;;;;5004412;28;20395;-66
2022/12/29 09:19:31;;;;;;;14.07;2.08;;;9.60;99.90;;;;;;4995027;28;20065;-65
2022/12/29 09:21:57;;;;;;;10.45;1.85;;;9.60;99.90;;;;;;4995084;28;20078;-66
2022/12/29 09:24:23;;;;;;;7.85;1.55;;;9.50;99.90;;;;;;4994307;28;20018;-65
2022/12/29 09:26:49;;;;;;;7.38;1.40;;;9.40;99.90;;;;;;4995288;28;20729;-65
2022/12/29 09:29:15;;;;;;;4.55;1.50;;;9.30;99.90;;;;;;4995388;28;20026;-65
2022/12/29 09:31:41;;;;;;;12.77;3.10;;;9.30;99.90;;;;;;4993633;28;20173;-65
2022/12/29 09:34:07;;;;;;;17.70;2.45;;;9.30;99.90;;;;;;4978722;28;20140;-66
2022/12/29 09:36:33;;;;;;;11.45;2.08;;;9.30;99.90;;;;;;4975751;28;20379;-66
2022/12/29 09:38:59;;;;;;;9.93;2.03;;;9.30;99.90;;;;;;4990620;28;20030;-66
2022/12/29 09:41:37;;;;;;;18.50;3.10;;;9.40;99.90;;;;;;4990531;28;20550;-65
2022/12/29 09:44:34;;;;;;;6.15;1.50;;;9.40;99.90;;;;;;4990093;28;20037;-66
2022/12/29 09:47:00;;;;;;;23.83;4.13;;;9.40;99.90;;;;;;4987727;28;20049;-65
2022/12/29 09:49:49;;;;;;;0.43;0.32;;;9.40;99.90;;;;;;4979341;28;20105;-65
2022/12/29 09:52:25;;;;;;;12.05;2.47;;;9.50;99.90;;;;;;4992850;28;20034;-66
2022/12/29 09:55:10;;;;;;;6.95;1.90;;;9.60;99.90;;;;;;4994663;28;20054;-65
2022/12/29 09:57:57;;;;;;;2.03;1.27;;;9.60;99.90;;;;;;4978605;28;20034;-65
2022/12/29 10:00:38;;;;;;;3.10;1.40;;;9.60;99.90;;;;;;4978010;28;20056;-65
2022/12/29 10:03:15;;;;;;;16.25;1.80;;;9.70;99.90;;;;;;4975037;28;20035;-66
2022/12/29 10:05:51;;;;;;;15.90;2.78;;;9.90;99.90;;;;;;4984532;28;20030;-64
2022/12/29 10:08:32;;;;;;;26.55;3.13;;;9.80;99.90;;;;;;4988446;28;20030;-65
2022/12/29 10:11:36;;;;;;;3.95;1.15;;;9.70;99.90;;;;;;4993708;28;20069;-65
2022/12/29 10:14:29;;;;;;;18.33;1.70;;;9.90;99.90;;;;;;4970401;28;20034;-65
2022/12/29 10:17:03;;;;;;;1.23;0.60;;;9.90;99.90;;;;;;4976669;28;20027;-67
2022/12/29 10:19:53;;;;;;;6.75;1.52;;;10.00;99.90;;;;;;4993946;28;20029;-65
2022/12/29 10:22:31;;;;;;;21.27;1.73;;;10.00;99.90;;;;;;4991958;28;20045;-65
2022/12/29 10:24:57;;;;;;;19.58;2.60;;;10.00;99.90;;;;;;4993116;28;20089;-65
2022/12/29 10:27:24;;;;;;;18.40;2.95;;;10.10;99.90;;;;;;4991926;28;20109;-66
2022/12/29 10:29:55;;;;;;;8.00;2.65;;;9.90;99.90;;;;;;4993621;28;20030;-66
2022/12/29 10:32:27;;;;;;;4.28;1.05;;;9.90;99.90;;;;;;4992568;28;20045;-65
2022/12/29 10:34:58;;;;;;;8.55;2.08;;;9.80;99.90;;;;;;4992444;28;20479;-66
2022/12/29 10:37:39;;;;;;;6.05;1.33;;;9.80;99.90;;;;;;4994016;28;20419;-66
2022/12/29 10:40:24;;;;;;;12.98;1.70;;;9.80;99.90;;;;;;4993483;28;20088;-65
2022/12/29 10:42:53;;;;;;;12.57;1.27;;;9.80;99.90;;;;;;4992708;28;20045;-65
2022/12/29 10:45:24;;;;;;;5.60;1.50;;;9.80;99.90;;;;;;4993590;28;20073;-66
2022/12/29 10:48:06;;;;;;;10.15;2.67;;;9.80;99.90;;;;;;4992585;28;20043;-67
2022/12/29 10:50:32;;;;;;;5.63;2.13;;;9.80;99.90;;;;;;4993528;28;20034;-65
2022/12/29 10:53:04;;;;;;;4.45;0.35;;;9.80;99.90;;;;;;4993628;28;20038;-67
2022/12/29 10:55:37;;;;;;;1.23;0.50;;;9.90;99.90;;;;;;4994009;28;20036;-65
2022/12/29 10:58:13;;;;;;;4.07;1.75;;;10.00;99.90;;;;;;4993314;28;20026;-66
2022/12/29 11:00:39;;;;;;;17.70;3.38;;;10.10;99.90;;;;;;4992333;28;20105;-65
2022/12/29 11:03:26;;;;;;;5.82;1.48;;;10.20;99.90;;;;;;4992372;28;20038;-66
2022/12/29 11:06:05;;;;;;;4.03;0.93;;;10.30;99.90;;;;;;4978383;28;20027;-66
2022/12/29 11:08:37;;;;;;;0.98;0.30;;;10.40;99.90;;;;;;4990191;28;20360;-68
2022/12/29 11:11:06;;;;;;;2.47;1.15;;;10.50;99.90;;;;;;4993774;28;20066;-66
2022/12/29 11:13:35;;;;;;;8.40;1.90;;;10.70;99.90;;;;;;4993344;28;20038;-66
2022/12/29 11:16:02;;;;;;;15.30;1.75;;;10.80;99.90;;;;;;4991957;28;20352;-66
2022/12/29 11:18:39;;;;;;;6.15;2.50;;;11.00;99.90;;;;;;4993221;28;20461;-66
2022/12/29 11:21:28;;;;;;;2.60;1.40;;;11.10;99.90;;;;;;4993651;28;20121;-66
2022/12/29 11:24:04;;;;;;;15.55;2.05;;;11.20;99.90;;;;;;4993130;28;20026;-66
2022/12/29 11:26:32;;;;;;;11.15;2.20;;;11.10;99.90;;;;;;4993382;28;20037;-67
2022/12/29 11:29:16;;;;;;;12.10;1.05;;;10.90;99.90;;;;;;4992809;28;20472;-66
2022/12/29 11:31:46;;;;;;;5.05;0.98;;;10.80;99.90;;;;;;4991850;28;20077;-66
2022/12/29 11:34:35;;;;;;;3.65;0.55;;;10.80;99.90;;;;;;4992042;28;20031;-66
2022/12/29 11:37:25;;;;;;;13.10;2.58;;;10.80;99.90;;;;;;4993343;28;20054;-65
2022/12/29 11:39:57;;;;;;;3.70;0.73;;;10.80;99.90;;;;;;4981777;28;20383;-67
2022/12/29 11:42:32;;;;;;;0.40;0.40;;;10.80;99.90;;;;;;4993238;28;20443;-66
2022/12/29 11:45:14;;;;;;;7.85;1.27;;;10.80;99.90;;;;;;4991631;28;20022;-66
2022/12/29 11:47:51;;;;;;;5.07;1.45;;;10.90;99.90;;;;;;4993243;28;20117;-66
2022/12/29 11:50:21;;;;;;;0.70;0.32;;;11.00;99.90;;;;;;5007336;23;20046;-66
2022/12/29 11:52:50;;;;;;;4.63;1.33;;;11.00;99.90;;;;;;4993159;28;20045;-65
2022/12/29 11:55:23;;;;;;;1.08;0.63;;;10.90;99.90;;;;;;4991721;28;20512;-64
2022/12/29 11:57:52;;;;;;;2.75;0.70;;;10.90;99.90;;;;;;4992872;28;20045;-69
2022/12/29 12:00:30;;;;;;;4.20;0.90;;;11.00;99.90;;;;;;4992544;28;20445;-64
2022/12/29 12:03:04;;;;;;;8.10;1.33;;;10.90;99.90;;;;;;4993000;28;20034;-64
2022/12/29 12:05:54;;;;;;;6.55;1.27;;;10.90;99.90;;;;;;4992812;28;20037;-65
2022/12/29 12:08:51;;;;;;;6.82;1.45;;;10.90;99.90;;;;;;4992784;28;20113;-65
2022/12/29 12:11:20;;;;;;;4.45;0.63;;;10.90;99.90;;;;;;4997037;28;20268;-65
2022/12/29 12:14:20;;;;;;;10.60;2.10;;;10.80;99.90;;;;;;4978802;28;20269;-65
2022/12/29 12:17:21;;;;;;;5.35;0.68;;;10.80;99.90;;;;;;4958766;28;20041;-64
2022/12/29 12:19:58;;;;;;;5.00;2.13;;;10.70;99.90;;;;;;4996403;28;20523;-64
2022/12/29 12:22:37;;;;;;;4.30;1.15;;;10.60;99.90;;;;;;4996413;28;20037;-64
2022/12/29 12:25:15;;;;;;;6.25;1.80;;;10.40;99.90;;;;;;4996502;28;20041;-64
2022/12/29 12:28:16;;;;;;;8.48;2.28;;;10.20;99.90;;;;;;4996349;28;20120;-63
2022/12/29 12:30:47;;;;;;;14.13;5.00;;;10.10;99.90;;;;;;4996313;28;20403;-65
2022/12/29 12:33:26;;;;;;;1.20;0.77;;;10.10;99.90;;;;;;4996894;28;20038;-64
2022/12/29 12:36:15;;;;;;;3.13;0.68;;;10.10;99.90;;;;;;4996420;28;20072;-66
2022/12/29 12:39:20;;;;;;;1.58;0.63;;;10.10;99.90;;;;;;4996153;28;20037;-64
2022/12/29 12:42:12;;;;;;;14.93;2.15;;;10.10;99.90;;;;;;4969462;28;20050;-64
2022/12/29 12:45:08;;;;;;;3.63;0.98;;;10.00;99.90;;;;;;4966663;28;20042;-64
2022/12/29 12:48:15;;;;;;;0.00;0.00;;;10.00;99.90;;;;;;4995884;28;20034;-65
2022/12/29 12:51:11;;;;;;;3.00;0.95;;;10.00;99.90;;;;;;4935883;29;20047;-65
2022/12/29 12:54:04;;;;;;;0.10;0.10;;;10.00;99.90;;;;;;4926101;29;20054;-64
2022/12/29 12:56:50;;;;;;;6.72;3.10;;;10.10;99.90;;;;;;4986046;28;20062;-66
2022/12/29 12:59:38;;;;;;;5.40;1.80;;;10.00;99.90;;;;;;4996193;28;20379;-65
2022/12/29 13:02:19;;;;;;;6.13;1.35;;;10.10;99.90;;;;;;4977978;28;20430;-64
2022/12/29 13:05:25;;;;;;;16.42;2.78;;;10.10;99.90;;;;;;4996018;28;20472;-64
2022/12/29 13:07:50;;;;;;;3.70;0.82;;;10.30;99.90;;;;;;4966770;28;20047;-64
2022/12/29 13:10:22;;;;;;;10.90;2.22;;;10.60;99.90;;;;;;4974898;28;20106;-64
2022/12/29 13:13:03;;;;;;;7.88;1.55;;;10.60;99.90;;;;;;4995799;28;20041;-65
2022/12/29 13:15:55;;;;;;;6.13;1.50;;;10.40;99.90;;;;;;4995540;28;20018;-64
2022/12/29 13:18:38;;;;;;;17.42;1.40;;;10.40;99.90;;;;;;4995291;28;20033;-64
2022/12/29 13:21:52;;;;;;;10.05;1.77;;;10.40;99.90;;;;;;4982731;28;20043;-64
2022/12/29 13:24:26;;;;;;;2.22;0.93;;;10.40;99.90;;;;;;4935201;29;20034;-66
2022/12/29 13:27:10;;;;;;;4.72;1.23;;;10.40;99.90;;;;;;4935368;29;20062;-64
2022/12/29 13:29:50;;;;;;;4.95;0.35;;;10.40;99.90;;;;;;4969322;28;20035;-63
2022/12/29 13:32:44;;;;;;;1.08;0.32;;;10.30;99.90;;;;;;4995389;28;20041;-64
2022/12/29 13:35:27;;;;;;;0.50;0.47;;;10.30;99.90;;;;;;4995426;28;20031;-64
2022/12/29 13:38:26;;;;;;;1.33;1.23;;;10.30;99.90;;;;;;4982106;28;20454;-64
2022/12/29 13:41:03;;;;;;;4.03;1.67;;;10.20;99.90;;;;;;4958101;28;20058;-64
2022/12/29 13:43:31;;;;;;;5.97;2.33;;;10.20;99.90;;;;;;4985923;28;20036;-64
2022/12/29 13:46:13;;;;;;;7.03;0.77;;;10.20;99.90;;;;;;4994856;28;20038;-65
2022/12/29 13:49:00;;;;;;;3.28;0.32;;;10.10;99.90;;;;;;4989979;28;20039;-65
2022/12/29 13:51:27;;;;;;;2.28;1.05;;;10.20;99.90;;;;;;4975306;28;20089;-68
2022/12/29 13:54:30;;;;;;;11.60;1.08;;;10.10;99.90;;;;;;4976196;28;20023;-65
2022/12/29 13:57:13;;;;;;;19.40;1.83;;;10.10;99.90;;;;;;4946424;28;20039;-65
2022/12/29 13:59:57;;;;;;;;;;;10.10;99.90;;;;;;4975510;28;20031;-65